createdAt,value
2023-03-11T00:00:02.668Z,37.81
2023-03-11T00:15:01.281Z,37.81
2023-03-11T00:30:01.707Z,37.81
2023-03-11T00:45:02.010Z,37.81
2023-03-11T01:00:02.012Z,37.81
2023-03-11T01:15:02.834Z,37.81
2023-03-11T01:30:02.778Z,37.81
2023-03-11T01:45:01.754Z,37.81
2023-03-11T02:00:02.364Z,66.75
2023-03-11T02:15:02.110Z,2.54
2023-03-11T02:30:01.701Z,2.52
2023-03-11T02:45:02.160Z,2.33
2023-03-11T03:00:01.374Z,2.8
2023-03-11T03:15:02.098Z,2
2023-03-11T03:30:02.088Z,1.66
2023-03-11T03:45:03.024Z,1.76
2023-03-11T04:00:01.520Z,1.46
2023-03-11T04:15:01.604Z,1.29
2023-03-11T04:30:02.640Z,1.27
2023-03-11T04:45:01.903Z,1.8
2023-03-11T05:00:01.711Z,1.15
2023-03-11T05:15:02.246Z,1.27
2023-03-11T05:30:02.752Z,1.22
2023-03-11T05:45:01.945Z,1.22
2023-03-11T06:00:02.527Z,0.67
2023-03-11T06:15:01.615Z,0.65
2023-03-11T06:30:02.201Z,0.65
2023-03-11T06:45:02.746Z,0.65
2023-03-11T07:00:01.504Z,0.65
2023-03-11T07:15:01.567Z,0.65
2023-03-11T07:30:02.218Z,0.65
2023-03-11T07:45:02.747Z,0.65
2023-03-11T08:00:01.487Z,0.65
2023-03-11T08:15:01.782Z,0.65
2023-03-11T08:30:02.139Z,0.65
2023-03-11T08:45:02.037Z,1.26
2023-03-11T09:00:02.631Z,1.26
2023-03-11T09:15:03.137Z,1.26
2023-03-11T09:30:01.473Z,1.26
2023-03-11T09:45:01.982Z,1.26
2023-03-11T10:00:03.149Z,1.26
2023-03-11T10:15:02.801Z,1.26
2023-03-11T10:30:01.634Z,1.26
2023-03-11T10:45:02.044Z,1.26
2023-03-11T11:00:02.298Z,1.26
2023-03-11T11:15:01.416Z,1.26
2023-03-11T11:30:01.853Z,1.26
2023-03-11T11:45:02.163Z,1.26
2023-03-11T12:00:02.320Z,1.26
2023-03-11T12:15:02.888Z,1.26
2023-03-11T12:30:03.397Z,1.26
2023-03-11T12:45:01.727Z,1.26
2023-03-11T13:00:02.378Z,1.26
2023-03-11T13:15:02.892Z,1.26
2023-03-11T13:30:01.584Z,1.26
2023-03-11T13:45:01.890Z,1.26
2023-03-11T14:00:02.403Z,1.26
2023-03-11T14:15:02.962Z,1.26
2023-03-11T14:30:03.379Z,1.26
2023-03-11T14:45:01.819Z,1.26
2023-03-11T15:00:02.463Z,1.26
2023-03-11T15:15:02.953Z,1.26
2023-03-11T15:30:01.554Z,1.26
2023-03-11T15:45:01.844Z,1.26
2023-03-11T16:00:02.377Z,1.26
2023-03-11T16:15:02.946Z,1.26
2023-03-11T16:30:02.288Z,1.26
2023-03-11T16:45:03.873Z,1.26
2023-03-11T17:00:02.345Z,1.26
2023-03-11T17:15:01.366Z,1.26
2023-03-11T17:30:01.759Z,1.26
2023-03-11T17:45:02.047Z,1.26
2023-03-11T18:00:02.297Z,1.26
2023-03-11T18:15:02.879Z,1.26
2023-03-11T18:30:03.328Z,1.26
2023-03-11T18:45:01.608Z,1.26
2023-03-11T19:00:02.249Z,1.26
2023-03-11T19:15:02.794Z,1.26
2023-03-11T19:30:03.315Z,1.26
2023-03-11T19:45:01.668Z,1.26
2023-03-11T20:00:02.262Z,1.26
2023-03-11T20:15:02.859Z,1.26
2023-03-11T20:30:03.435Z,1.26
2023-03-11T20:45:01.723Z,1.26
2023-03-11T21:00:02.358Z,1.26
2023-03-11T21:15:01.525Z,1.26
2023-03-11T21:30:01.852Z,1.26
2023-03-11T21:45:02.156Z,1.26
2023-03-11T22:00:02.337Z,1.26
2023-03-11T22:15:02.746Z,1.26
2023-03-11T22:30:01.585Z,1.26
2023-03-11T22:45:01.899Z,1.26
2023-03-11T23:00:02.394Z,1.26
2023-03-11T23:15:02.591Z,1.26
2023-03-11T23:30:01.590Z,1.26
2023-03-11T23:45:01.901Z,1.26
